Allendale, MI

4:38 PM EDT on September 20, 2014 (GMT -0400)
Tallmadge Township | Change Station
CLOSE
Current Station
Personal Weather Station
Location: Marne, MI
Elevation: 682 ft
Nearby Weather Stations

Elev 682 ft 42.99 °N, 85.81 °W | Updated 2 minutes ago

Rain
Rain
69.1 °F
Feels Like 69.1 °F
N
2.0
Wind Variable Wind from SW
Gusts 10.0 mph

Today
High -- | Low -- °F
--% Chance of Precip.
Yesterday
High -- | Low -- °F
Precip. -- in
7:28 AM 7:44 PM
Waning Crescent, 10% visible
Pressure 29.79 in
Visibility 10.0 miles
Clouds Clear
Dew Point 65 °F
Humidity 86%
Rainfall 0.10 in
Snow Depth Not available.
UV 5 out of 12
Pollen .90 out of 12
Ozone Good
PM2.5 Moderate
Flu Activity Not available.
METAR KBIV 201953Z AUTO 22018G26KT 10SM CLR 23/19 A2980 RMK AO2 PK WND 21030/1858 LTG DSNT N AND NW RAE12 SLP087 P0000 T02330189 $

More Conditions Fewer Conditions

Pressure 29.79 in
Visibility 10.0 miles
Clouds Clear
Dew Point 65 °F
Humidity 86%
Rainfall 0.10 in
Snow Depth Not available.
UV 5 out of 12
Pollen .90 out of 12
Ozone Good
PM2.5 Moderate
Flu Activity Not available.
METAR KBIV 201953Z AUTO 22018G26KT 10SM CLR 23/19 A2980 RMK AO2 PK WND 21030/1858 LTG DSNT N AND NW RAE12 SLP087 P0000 T02330189 $

More Conditions Fewer Conditions

10-Day Weather Forecast

Almanac

Astronomy

Sep. 20, 2014 Rise Set
Actual Time 7:28 AM EDT 7:44 PM EDT
Civil Twilight 7:00 AM EDT 8:12 PM EDT
Nautical Twilight 6:27 AM EDT 8:46 PM EDT
Astronomical Twilight 5:52 AM EDT 9:20 PM EDT
Moon 4:03 AM EDT 5:51 PM EDT
Length of Visible Light 13h 12m
Length of Day
12h 15m
Tomorrow will be 2m 54s shorter.
Waning Crescent, 10% of the Moon is Illuminated
Today
Waning Crescent
Sep 24
New
Oct 1
First Quarter
Oct 8
Full
Oct 15
Last Quarter

Today's Extremes

State Highs State Lows

Community

WunderPhotos

Upload Photos

1,754,937 photos uploaded!

WunderBlogs® & News

Nearby

Air Quality

  Air Quality AQ Index Pollutant
Yesterday Good
OZONE
Yesterday Good
PM2.5
Current Moderate
PM2.5
Current Good
OZONE
Saturday Good
OZONE
Saturday Good
PM2.5
Sunday Good
OZONE
Sunday Good
PM2.5
Monday Good
OZONE
Monday Good
PM2.5

Snow Depth

Station Depth Elevation
No new snow has been reported.

Earthquake Activity

City Distance Mag. Time & Date
No recent earthquake activity has been reported nearby.
Minimum magnitude displayed is 2.5.

Coastal Water Temperatures

Place Temperature
Holland, MI 62.1 °F

Nearby Weather Stations